Aérodrome :







RETROUVEZ-NOUS SUR...

 
LOGIN :

S'inscrire | Disclaimer

   EN    FR    IT 

 









Légende :    VFR   VFR Marginal   IFR   IFR Intensif   IFR Très Intensif
Visi : 
Plafond : 
>= 8 km
>= 3000ft
5 à 8 km
1000 à 3000 ft
1500m à 5 km
500 à 1000 ft
800 à 1500m
200 à 500 ft
< 800m
< 200 ft
Symboles :   Orages  Brouillard  Fortes neiges  Fortes précipitations  Vent > 20 kt






- Altitude de l'aérodrome : 124 ft
- Code IATA : YGV


CYGV - Havre St Pierre

DERNIER METAR :
  • 100841Z AUTO 19018G32KT 8SM -RA BKN007 OVC012 05/05 A2934 RMK PRESFR SLP940

METARs EXPIRÉS :
  • 100837Z AUTO 18019G32KT 8SM -RA SCT004 OVC009 05/05 A2935 RMK PRESFR SLP941
  • 100826Z AUTO 18011G20KT 130V190 6SM -RA BR OVC004 04/04 A2938 RMK PRESFR SLP951
  • 100800Z AUTO 14008KT 5SM RA BR OVC006 04/04 A2942 RMK PRESFR SLP965
  • 100750Z AUTO 13008G15KT 5SM RA BR BKN006 OVC010 04/03 A2943 RMK PRESFR SLP970
  • 100746Z AUTO 13009G15KT 5SM RA BR OVC008 03/03 A2944 RMK PRESFR SLP972
  • 100719Z AUTO 11008G15KT 6SM RA BR OVC008 02/02 A2948 RMK PRESFR SLP986
  • 100713Z AUTO 11007G17KT 6SM RA BR BKN005 OVC010 02/02 A2949 RMK PRESFR SLP991
  • 100707Z AUTO 10009G17KT 4SM RA -UP BR BKN005 OVC010 02/01 A2950 RMK PRESFR SLP993
  • 100657Z AUTO 10010G17KT 4SM -UP BR BKN005 OVC010 02/01 A2952 RMK PRESFR SLP999
  • 100645Z AUTO 09012G20KT 4SM -UP BR SCT005 BKN008 OVC013 01/01 A2954 RMK PRESFR SLP006
  • 100632Z AUTO 09014G20KT 4SM -RA -UP BR BKN007 OVC012 01/01 A2956 RMK PRESFR SLP013
  • 100600Z AUTO 08013G23KT 4SM -UP BR BKN004 BKN012 OVC017 01/00 A2961 RMK PRESFR PCPN 4.2MM PAST HR SLP029

TAF TAF CYGV
Valide du 10 à 08h jusqu'au 10 à 20h UTC


100738Z 1008/1020 11012G22KT 6SM -RA BR OVC008
TEMPO 1008/1009 1SM RA BR OVC004
FM100900 18015G25KT 11/2SM -RA BR OVC004
TEMPO 1009/1012 1/2SM FG VV002
FM101200 21015G25KT 1/2SM -DZ FG VV002
TEMPO 1012/1015 2SM BR OVC006
FM101500 25015G25KT 21/2SM -DZ BR OVC006
TEMPO 1015/1020 6SM BR OVC012 RMK FCST BASED ON AUTO OBS. NXT FCST BY 101400Z



MET'MAP, la Météo Aéronautique d'un coup d'oeil ! - Copyright ORBIFLY Décembre 2007 - Disclaimer

ORBIFLY MET'MAP TEAM :

Programmation & Développement : Alexandra Zaïnal
Sur une idée originale de : Baudouin d'Aumeries
Assistance à la programmation : Marc-Olivier Méhu
Soutien technique & logistique : Manuel Goepfert

Contact : metmap@orbifly.com




SOURCES & CREDITS :

   NOAA